sensor_id;sensor_type;location;lat;lon;timestamp;pressure;altitude;pressure_sealevel;temperature;humidity
35224;BME280;21367;51.930;8.112;2023-07-30T00:03:52;100271.38;;;17.09;100.00
35224;BME280;21367;51.930;8.112;2023-07-30T00:08:56;100280.09;;;17.15;100.00
35224;BME280;21367;51.930;8.112;2023-07-30T00:14:02;100280.13;;;17.18;100.00
35224;BME280;21367;51.930;8.112;2023-07-30T00:19:06;100284.78;;;16.64;100.00
35224;BME280;21367;51.930;8.112;2023-07-30T00:24:09;100279.13;;;17.03;100.00
35224;BME280;21367;51.930;8.112;2023-07-30T00:29:16;100285.22;;;17.05;100.00
35224;BME280;21367;51.930;8.112;2023-07-30T00:34:20;100281.78;;;17.09;100.00
35224;BME280;21367;51.930;8.112;2023-07-30T00:39:24;100281.00;;;17.21;100.00
35224;BME280;21367;51.930;8.112;2023-07-30T00:44:30;100281.84;;;17.20;100.00
35224;BME280;21367;51.930;8.112;2023-07-30T00:49:34;100284.22;;;16.94;100.00
35224;BME280;21367;51.930;8.112;2023-07-30T00:54:39;100280.94;;;17.14;100.00
35224;BME280;21367;51.930;8.112;2023-07-30T00:59:46;100277.06;;;16.72;100.00
35224;BME280;21367;51.930;8.112;2023-07-30T01:04:51;100285.19;;;17.07;100.00
35224;BME280;21367;51.930;8.112;2023-07-30T01:09:55;100291.22;;;17.00;100.00
35224;BME280;21367;51.930;8.112;2023-07-30T01:15:03;100298.09;;;16.96;100.00
35224;BME280;21367;51.930;8.112;2023-07-30T01:20:08;100302.38;;;16.90;100.00
35224;BME280;21367;51.930;8.112;2023-07-30T01:25:14;100308.19;;;16.73;100.00
35224;BME280;21367;51.930;8.112;2023-07-30T01:30:22;100308.38;;;16.85;100.00
35224;BME280;21367;51.930;8.112;2023-07-30T01:35:28;100317.69;;;16.68;100.00
35224;BME280;21367;51.930;8.112;2023-07-30T01:40:34;100328.06;;;16.68;100.00
35224;BME280;21367;51.930;8.112;2023-07-30T01:45:38;100326.91;;;16.45;100.00
35224;BME280;21367;51.930;8.112;2023-07-30T01:50:42;100328.72;;;16.50;100.00
35224;BME280;21367;51.930;8.112;2023-07-30T01:55:50;100331.50;;;16.64;100.00
35224;BME280;21367;51.930;8.112;2023-07-30T02:00:54;100328.69;;;16.47;100.00
35224;BME280;21367;51.930;8.112;2023-07-30T02:05:59;100331.28;;;16.46;100.00
35224;BME280;21367;51.930;8.112;2023-07-30T02:11:05;100338.69;;;16.18;100.00
35224;BME280;21367;51.930;8.112;2023-07-30T02:16:08;100333.72;;;16.33;100.00
35224;BME280;21367;51.930;8.112;2023-07-30T02:21:12;100338.69;;;16.18;100.00
35224;BME280;21367;51.930;8.112;2023-07-30T02:26:18;100327.16;;;15.96;100.00
35224;BME280;21367;51.930;8.112;2023-07-30T02:31:22;100332.97;;;15.80;100.00
35224;BME280;21367;51.930;8.112;2023-07-30T02:36:27;100333.94;;;15.88;100.00
35224;BME280;21367;51.930;8.112;2023-07-30T02:41:33;100333.97;;;15.89;100.00
35224;BME280;21367;51.930;8.112;2023-07-30T02:46:36;100330.53;;;15.89;100.00
35224;BME280;21367;51.930;8.112;2023-07-30T02:51:40;100341.75;;;15.91;100.00
35224;BME280;21367;51.930;8.112;2023-07-30T02:56:51;100333.13;;;15.89;100.00
35224;BME280;21367;51.930;8.112;2023-07-30T03:01:55;100343.25;;;15.75;100.00
35224;BME280;21367;51.930;8.112;2023-07-30T03:06:59;100340.81;;;15.83;100.00
35224;BME280;21367;51.930;8.112;2023-07-30T03:12:06;100343.34;;;15.80;100.00
35224;BME280;21367;51.930;8.112;2023-07-30T03:17:10;100353.53;;;15.69;100.00
35224;BME280;21367;51.930;8.112;2023-07-30T03:22:13;100356.84;;;15.63;100.00
35224;BME280;21367;51.930;8.112;2023-07-30T03:27:20;100360.44;;;15.68;100.00
35224;BME280;21367;51.930;8.112;2023-07-30T03:32:23;100356.50;;;15.39;100.00
35224;BME280;21367;51.930;8.112;2023-07-30T03:37:27;100360.34;;;15.64;100.00
35224;BME280;21367;51.930;8.112;2023-07-30T03:42:33;100363.34;;;15.38;100.00
35224;BME280;21367;51.930;8.112;2023-07-30T03:47:38;100364.16;;;15.34;100.00
35224;BME280;21367;51.930;8.112;2023-07-30T03:52:41;100356.13;;;15.17;100.00
35224;BME280;21367;51.930;8.112;2023-07-30T03:57:48;100358.06;;;15.31;100.00
35224;BME280;21367;51.930;8.112;2023-07-30T04:02:51;100352.78;;;15.26;100.00
35224;BME280;21367;51.930;8.112;2023-07-30T04:07:55;100357.84;;;15.18;100.00
35224;BME280;21367;51.930;8.112;2023-07-30T04:13:02;100360.84;;;14.93;100.00
35224;BME280;21367;51.930;8.112;2023-07-30T04:18:05;100361.13;;;15.10;100.00
35224;BME280;21367;51.930;8.112;2023-07-30T04:23:09;100360.72;;;15.35;100.00
35224;BME280;21367;51.930;8.112;2023-07-30T04:28:15;100359.03;;;15.37;100.00
35224;BME280;21367;51.930;8.112;2023-07-30T04:33:19;100358.38;;;15.50;100.00
35224;BME280;21367;51.930;8.112;2023-07-30T04:38:23;100358.44;;;15.52;100.00
35224;BME280;21367;51.930;8.112;2023-07-30T04:43:29;100366.81;;;15.37;100.00
35224;BME280;21367;51.930;8.112;2023-07-30T04:48:33;100372.16;;;15.48;100.00
35224;BME280;21367;51.930;8.112;2023-07-30T04:53:37;100373.19;;;15.58;100.00
35224;BME280;21367;51.930;8.112;2023-07-30T04:58:43;100376.66;;;15.60;100.00
35224;BME280;21367;51.930;8.112;2023-07-30T05:03:47;100379.06;;;15.47;100.00
35224;BME280;21367;51.930;8.112;2023-07-30T05:08:50;100373.88;;;15.46;100.00
35224;BME280;21367;51.930;8.112;2023-07-30T05:13:57;100373.16;;;15.56;100.00
35224;BME280;21367;51.930;8.112;2023-07-30T05:19:01;100368.53;;;15.38;100.00
35224;BME280;21367;51.930;8.112;2023-07-30T05:24:05;100368.63;;;15.44;100.00
35224;BME280;21367;51.930;8.112;2023-07-30T05:29:11;100365.34;;;15.53;100.00
35224;BME280;21367;51.930;8.112;2023-07-30T05:34:15;100376.56;;;15.54;100.00
35224;BME280;21367;51.930;8.112;2023-07-30T05:39:18;100388.75;;;15.58;100.00
35224;BME280;21367;51.930;8.112;2023-07-30T05:44:25;100380.97;;;15.59;100.00
35224;BME280;21367;51.930;8.112;2023-07-30T05:49:28;100372.72;;;15.82;100.00
35224;BME280;21367;51.930;8.112;2023-07-30T05:54:32;100364.41;;;16.03;100.00
35224;BME280;21367;51.930;8.112;2023-07-30T05:59:38;100378.88;;;15.87;100.00
35224;BME280;21367;51.930;8.112;2023-07-30T06:04:42;100397.47;;;16.19;100.00
35224;BME280;21367;51.930;8.112;2023-07-30T06:09:46;100392.78;;;16.56;100.00
35224;BME280;21367;51.930;8.112;2023-07-30T06:14:52;100401.16;;;16.35;100.00
35224;BME280;21367;51.930;8.112;2023-07-30T06:19:56;100397.94;;;16.54;100.00
35224;BME280;21367;51.930;8.112;2023-07-30T06:25:00;100392.00;;;16.61;100.00
35224;BME280;21367;51.930;8.112;2023-07-30T06:30:07;100402.34;;;16.60;100.00
35224;BME280;21367;51.930;8.112;2023-07-30T06:35:10;100401.16;;;16.35;100.00
35224;BME280;21367;51.930;8.112;2023-07-30T06:40:14;100416.91;;;16.50;100.00
35224;BME280;21367;51.930;8.112;2023-07-30T06:45:21;100420.34;;;16.48;100.00
35224;BME280;21367;51.930;8.112;2023-07-30T06:50:25;100424.78;;;16.56;100.00
35224;BME280;21367;51.930;8.112;2023-07-30T06:55:28;100432.34;;;16.39;100.00
35224;BME280;21367;51.930;8.112;2023-07-30T07:00:35;100440.97;;;16.38;100.00
35224;BME280;21367;51.930;8.112;2023-07-30T07:05:38;100448.47;;;16.20;100.00
35224;BME280;21367;51.930;8.112;2023-07-30T07:10:44;100449.38;;;16.22;100.00
35224;BME280;21367;51.930;8.112;2023-07-30T07:15:50;100454.47;;;16.16;100.00
35224;BME280;21367;51.930;8.112;2023-07-30T07:20:53;100450.94;;;16.73;100.00
35224;BME280;21367;51.930;8.112;2023-07-30T07:25:57;100446.00;;;16.29;100.00
35224;BME280;21367;51.930;8.112;2023-07-30T07:31:04;100444.09;;;16.14;100.00
35224;BME280;21367;51.930;8.112;2023-07-30T07:36:08;100447.09;;;16.45;100.00
35224;BME280;21367;51.930;8.112;2023-07-30T07:41:14;100446.59;;;16.71;100.00
35224;BME280;21367;51.930;8.112;2023-07-30T07:46:21;100445.44;;;16.49;100.00
35224;BME280;21367;51.930;8.112;2023-07-30T07:51:27;100452.41;;;16.53;100.00
35224;BME280;21367;51.930;8.112;2023-07-30T07:56:31;100455.00;;;16.54;100.00
35224;BME280;21367;51.930;8.112;2023-07-30T08:01:37;100456.28;;;16.23;100.00
35224;BME280;21367;51.930;8.112;2023-07-30T08:06:41;100450.72;;;16.56;100.00
35224;BME280;21367;51.930;8.112;2023-07-30T08:11:45;100450.22;;;16.80;100.00
35224;BME280;21367;51.930;8.112;2023-07-30T08:16:51;100451.50;;;17.16;100.00
35224;BME280;21367;51.930;8.112;2023-07-30T08:21:55;100452.88;;;17.69;98.00
35224;BME280;21367;51.930;8.112;2023-07-30T08:26:59;100448.44;;;17.57;97.88
35224;BME280;21367;51.930;8.112;2023-07-30T08:32:06;100448.94;;;17.18;100.00
35224;BME280;21367;51.930;8.112;2023-07-30T08:37:09;100449.75;;;17.17;100.00
35224;BME280;21367;51.930;8.112;2023-07-30T08:42:13;100443.94;;;17.39;100.00
35224;BME280;21367;51.930;8.112;2023-07-30T08:47:19;100450.94;;;17.48;97.88
35224;BME280;21367;51.930;8.112;2023-07-30T08:52:24;100455.13;;;17.32;100.00
35224;BME280;21367;51.930;8.112;2023-07-30T08:57:29;100459.53;;;17.39;100.00
35224;BME280;21367;51.930;8.112;2023-07-30T09:02:38;100457.56;;;17.17;100.00
35224;BME280;21367;51.930;8.112;2023-07-30T09:07:43;100469.38;;;16.90;100.00
35224;BME280;21367;51.930;8.112;2023-07-30T09:12:52;100472.31;;;17.18;100.00
35224;BME280;21367;51.930;8.112;2023-07-30T09:17:59;100469.06;;;17.42;99.08
35224;BME280;21367;51.930;8.112;2023-07-30T09:23:03;100478.03;;;17.71;99.21
35224;BME280;21367;51.930;8.112;2023-07-30T09:28:06;100477.66;;;18.29;95.97
35224;BME280;21367;51.930;8.112;2023-07-30T09:33:18;100489.19;;;18.68;91.72
35224;BME280;21367;51.930;8.112;2023-07-30T09:38:22;100489.19;;;18.68;91.26
35224;BME280;21367;51.930;8.112;2023-07-30T09:43:28;100498.78;;;18.73;91.50
35224;BME280;21367;51.930;8.112;2023-07-30T09:48:35;100501.44;;;18.83;91.37
35224;BME280;21367;51.930;8.112;2023-07-30T09:53:38;100522.31;;;18.95;88.52
35224;BME280;21367;51.930;8.112;2023-07-30T09:58:42;100509.47;;;19.35;88.69
35224;BME280;21367;51.930;8.112;2023-07-30T10:03:49;100505.25;;;19.92;83.10
35224;BME280;21367;51.930;8.112;2023-07-30T10:08:53;100519.91;;;19.46;86.11
35224;BME280;21367;51.930;8.112;2023-07-30T10:13:59;100505.25;;;19.89;82.51
35224;BME280;21367;51.930;8.112;2023-07-30T10:19:06;100502.63;;;20.53;80.06
35224;BME280;21367;51.930;8.112;2023-07-30T10:24:09;100510.44;;;20.46;78.47
35224;BME280;21367;51.930;8.112;2023-07-30T10:29:15;100499.13;;;20.30;80.07
35224;BME280;21367;51.930;8.112;2023-07-30T10:34:25;100491.00;;;21.30;78.14
35224;BME280;21367;51.930;8.112;2023-07-30T10:39:29;100488.41;;;21.34;75.05
35224;BME280;21367;51.930;8.112;2023-07-30T10:44:34;100491.50;;;21.90;72.80
35224;BME280;21367;51.930;8.112;2023-07-30T10:49:41;100492.28;;;22.03;72.43
35224;BME280;21367;51.930;8.112;2023-07-30T10:54:47;100481.03;;;21.93;70.76
35224;BME280;21367;51.930;8.112;2023-07-30T10:59:50;100474.75;;;22.12;70.85
35224;BME280;21367;51.930;8.112;2023-07-30T11:05:11;100479.31;;;22.81;66.22
35224;BME280;21367;51.930;8.112;2023-07-30T11:10:14;100485.38;;;21.95;66.33
35224;BME280;21367;51.930;8.112;2023-07-30T11:15:18;100473.91;;;23.59;62.56
35224;BME280;21367;51.930;8.112;2023-07-30T11:20:25;100471.06;;;23.12;64.00
35224;BME280;21367;51.930;8.112;2023-07-30T11:25:30;100465.59;;;23.89;60.38
35224;BME280;21367;51.930;8.112;2023-07-30T11:30:34;100460.50;;;23.18;59.70
35224;BME280;21367;51.930;8.112;2023-07-30T11:35:40;100454.06;;;21.85;64.44
35224;BME280;21367;51.930;8.112;2023-07-30T11:40:44;100472.91;;;20.90;67.38
35224;BME280;21367;51.930;8.112;2023-07-30T11:45:47;100477.41;;;20.31;71.97
35224;BME280;21367;51.930;8.112;2023-07-30T11:50:54;100487.88;;;19.74;79.97
35224;BME280;21367;51.930;8.112;2023-07-30T11:55:57;100498.25;;;19.67;82.82
35224;BME280;21367;51.930;8.112;2023-07-30T12:01:01;100487.00;;;19.81;80.55
35224;BME280;21367;51.930;8.112;2023-07-30T12:06:09;100484.38;;;20.06;79.72
35224;BME280;21367;51.930;8.112;2023-07-30T12:11:13;100491.31;;;19.69;80.31
35224;BME280;21367;51.930;8.112;2023-07-30T12:16:16;100498.25;;;20.63;75.52
35224;BME280;21367;51.930;8.112;2023-07-30T12:21:22;100503.34;;;22.37;69.34
35224;BME280;21367;51.930;8.112;2023-07-30T12:26:26;100493.91;;;22.22;68.40
35224;BME280;21367;51.930;8.112;2023-07-30T12:31:30;100486.28;;;21.90;69.22
35224;BME280;21367;51.930;8.112;2023-07-30T12:36:36;100485.84;;;21.20;70.80
35224;BME280;21367;51.930;8.112;2023-07-30T12:41:42;100487.75;;;20.85;72.63
35224;BME280;21367;51.930;8.112;2023-07-30T12:46:46;100488.66;;;20.73;74.32
35224;BME280;21367;51.930;8.112;2023-07-30T12:51:52;100491.31;;;20.51;71.99
35224;BME280;21367;51.930;8.112;2023-07-30T12:56:56;100489.47;;;20.86;70.25
35224;BME280;21367;51.930;8.112;2023-07-30T13:01:59;100522.63;;;19.79;73.30
35224;BME280;21367;51.930;8.112;2023-07-30T13:07:06;100522.41;;;19.06;76.58
35224;BME280;21367;51.930;8.112;2023-07-30T13:12:09;100552.06;;;18.07;89.90
35224;BME280;21367;51.930;8.112;2023-07-30T13:17:13;100581.75;;;17.48;99.19
35224;BME280;21367;51.930;8.112;2023-07-30T13:22:19;100588.78;;;16.92;100.00
35224;BME280;21367;51.930;8.112;2023-07-30T13:27:23;100559.53;;;17.02;100.00
35224;BME280;21367;51.930;8.112;2023-07-30T13:32:27;100544.28;;;17.28;98.09
35224;BME280;21367;51.930;8.112;2023-07-30T13:37:33;100537.59;;;17.50;95.70
35224;BME280;21367;51.930;8.112;2023-07-30T13:42:37;100528.50;;;17.11;97.17
35224;BME280;21367;51.930;8.112;2023-07-30T13:47:40;100529.63;;;17.33;95.49
35224;BME280;21367;51.930;8.112;2023-07-30T13:52:47;100517.78;;;17.58;93.05
35224;BME280;21367;51.930;8.112;2023-07-30T13:57:50;100523.47;;;19.71;88.86
35224;BME280;21367;51.930;8.112;2023-07-30T14:02:54;100521.91;;;22.09;79.95
35224;BME280;21367;51.930;8.112;2023-07-30T14:08:01;100531.88;;;22.66;77.74
35224;BME280;21367;51.930;8.112;2023-07-30T14:13:04;100528.91;;;23.00;72.75
35224;BME280;21367;51.930;8.112;2023-07-30T14:18:08;100526.25;;;23.71;72.42
35224;BME280;21367;51.930;8.112;2023-07-30T14:23:14;100526.28;;;23.66;70.24
35224;BME280;21367;51.930;8.112;2023-07-30T14:28:18;100514.66;;;22.42;70.83
35224;BME280;21367;51.930;8.112;2023-07-30T14:33:22;100510.44;;;22.24;73.51
35224;BME280;21367;51.930;8.112;2023-07-30T14:38:28;100515.88;;;23.59;66.43
35224;BME280;21367;51.930;8.112;2023-07-30T14:43:34;100505.97;;;22.38;65.21
35224;BME280;21367;51.930;8.112;2023-07-30T14:48:38;100489.13;;;23.95;61.96
35224;BME280;21367;51.930;8.112;2023-07-30T14:53:47;100491.19;;;24.28;62.42
35224;BME280;21367;51.930;8.112;2023-07-30T14:58:51;100496.56;;;25.13;60.37
35224;BME280;21367;51.930;8.112;2023-07-30T15:03:55;100510.94;;;23.37;63.79
35224;BME280;21367;51.930;8.112;2023-07-30T15:09:03;100500.00;;;22.23;68.03
35224;BME280;21367;51.930;8.112;2023-07-30T15:14:07;100503.09;;;21.60;67.43
35224;BME280;21367;51.930;8.112;2023-07-30T15:19:11;100512.78;;;21.41;68.02
35224;BME280;21367;51.930;8.112;2023-07-30T15:24:18;100503.66;;;21.99;64.25
35224;BME280;21367;51.930;8.112;2023-07-30T15:29:22;100499.63;;;21.56;66.78
35224;BME280;21367;51.930;8.112;2023-07-30T15:34:26;100493.88;;;23.07;62.31
35224;BME280;21367;51.930;8.112;2023-07-30T15:39:32;100491.59;;;24.99;59.51
35224;BME280;21367;51.930;8.112;2023-07-30T15:44:37;100500.28;;;24.08;60.43
35224;BME280;21367;51.930;8.112;2023-07-30T15:49:40;100503.81;;;24.07;58.06
35224;BME280;21367;51.930;8.112;2023-07-30T15:54:47;100500.34;;;25.00;56.77
35224;BME280;21367;51.930;8.112;2023-07-30T15:59:51;100485.66;;;24.88;57.80
35224;BME280;21367;51.930;8.112;2023-07-30T16:04:55;100479.25;;;25.80;53.56
35224;BME280;21367;51.930;8.112;2023-07-30T16:10:03;100481.81;;;24.62;56.45
35224;BME280;21367;51.930;8.112;2023-07-30T16:15:08;100492.78;;;26.37;51.95
35224;BME280;21367;51.930;8.112;2023-07-30T16:20:12;100485.41;;;24.57;55.49
35224;BME280;21367;51.930;8.112;2023-07-30T16:25:18;100500.06;;;23.01;58.55
35224;BME280;21367;51.930;8.112;2023-07-30T16:30:22;100493.88;;;22.25;61.78
35224;BME280;21367;51.930;8.112;2023-07-30T16:35:26;100495.78;;;22.03;64.63
35224;BME280;21367;51.930;8.112;2023-07-30T16:40:32;100500.63;;;23.25;62.84
35224;BME280;21367;51.930;8.112;2023-07-30T16:45:36;100490.06;;;23.90;60.82
35224;BME280;21367;51.930;8.112;2023-07-30T16:50:44;100494.78;;;22.23;63.95
35224;BME280;21367;51.930;8.112;2023-07-30T16:55:51;100514.09;;;22.05;63.67
35224;BME280;21367;51.930;8.112;2023-07-30T17:01:01;100511.25;;;23.13;61.40
35224;BME280;21367;51.930;8.112;2023-07-30T17:06:04;100522.50;;;22.40;63.36
35224;BME280;21367;51.930;8.112;2023-07-30T17:11:11;100517.91;;;21.58;65.84
35224;BME280;21367;51.930;8.112;2023-07-30T17:16:15;100519.91;;;20.97;68.46
35224;BME280;21367;51.930;8.112;2023-07-30T17:21:19;100519.13;;;20.68;68.37
35224;BME280;21367;51.930;8.112;2023-07-30T17:26:27;100525.13;;;21.07;68.44
35224;BME280;21367;51.930;8.112;2023-07-30T17:31:31;100522.59;;;20.79;69.71
35224;BME280;21367;51.930;8.112;2023-07-30T17:36:35;100523.47;;;20.84;68.85
35224;BME280;21367;51.930;8.112;2023-07-30T17:41:42;100520.88;;;20.30;71.08
35224;BME280;21367;51.930;8.112;2023-07-30T17:46:45;100513.06;;;20.35;69.88
35224;BME280;21367;51.930;8.112;2023-07-30T17:51:50;100521.75;;;20.05;72.21
35224;BME280;21367;51.930;8.112;2023-07-30T17:56:56;100510.38;;;19.57;74.37
35224;BME280;21367;51.930;8.112;2023-07-30T18:01:59;100519.16;;;20.57;71.66
35224;BME280;21367;51.930;8.112;2023-07-30T18:07:09;100533.06;;;20.33;71.78
35224;BME280;21367;51.930;8.112;2023-07-30T18:12:16;100532.22;;;20.23;72.37
35224;BME280;21367;51.930;8.112;2023-07-30T18:17:19;100537.44;;;20.16;73.40
35224;BME280;21367;51.930;8.112;2023-07-30T18:22:24;100527.84;;;20.44;71.85
35224;BME280;21367;51.930;8.112;2023-07-30T18:27:30;100520.91;;;20.04;73.15
35224;BME280;21367;51.930;8.112;2023-07-30T18:32:34;100509.59;;;20.07;73.25
35224;BME280;21367;51.930;8.112;2023-07-30T18:37:38;100537.28;;;19.45;75.17
35224;BME280;21367;51.930;8.112;2023-07-30T18:42:53;100539.16;;;20.29;74.18
35224;BME280;21367;51.930;8.112;2023-07-30T18:47:57;100536.56;;;20.07;77.86
35224;BME280;21367;51.930;8.112;2023-07-30T18:53:00;100516.56;;;20.03;75.93
35224;BME280;21367;51.930;8.112;2023-07-30T18:58:07;100525.25;;;19.96;76.39
35224;BME280;21367;51.930;8.112;2023-07-30T19:03:11;100527.88;;;20.01;78.01
35224;BME280;21367;51.930;8.112;2023-07-30T19:08:14;100526.13;;;19.98;77.55
35224;BME280;21367;51.930;8.112;2023-07-30T19:13:23;100528.69;;;19.69;80.86
35224;BME280;21367;51.930;8.112;2023-07-30T19:18:27;100532.13;;;19.53;82.73
35224;BME280;21367;51.930;8.112;2023-07-30T19:23:31;100540.00;;;19.73;82.01
35224;BME280;21367;51.930;8.112;2023-07-30T19:28:37;100536.44;;;19.58;82.39
35224;BME280;21367;51.930;8.112;2023-07-30T19:33:41;100539.06;;;19.57;82.26
35224;BME280;21367;51.930;8.112;2023-07-30T19:38:45;100546.81;;;19.32;83.52
35224;BME280;21367;51.930;8.112;2023-07-30T19:43:51;100545.00;;;19.17;82.66
35224;BME280;21367;51.930;8.112;2023-07-30T19:48:56;100534.50;;;19.01;81.98
35224;BME280;21367;51.930;8.112;2023-07-30T19:54:01;100539.56;;;18.73;76.82
35224;BME280;21367;51.930;8.112;2023-07-30T19:59:08;100549.16;;;18.77;74.26
35224;BME280;21367;51.930;8.112;2023-07-30T20:04:11;100565.44;;;18.50;76.70
35224;BME280;21367;51.930;8.112;2023-07-30T20:09:15;100564.44;;;18.36;79.54
35224;BME280;21367;51.930;8.112;2023-07-30T20:14:21;100578.88;;;18.00;82.58
35224;BME280;21367;51.930;8.112;2023-07-30T20:19:25;100574.16;;;17.65;90.15
35224;BME280;21367;51.930;8.112;2023-07-30T20:24:30;100582.69;;;16.86;100.00
35224;BME280;21367;51.930;8.112;2023-07-30T20:29:36;100586.94;;;16.81;100.00
35224;BME280;21367;51.930;8.112;2023-07-30T20:34:40;100581.50;;;16.68;100.00
35224;BME280;21367;51.930;8.112;2023-07-30T20:39:44;100583.50;;;16.85;100.00
35224;BME280;21367;51.930;8.112;2023-07-30T20:44:50;100572.78;;;16.62;100.00
35224;BME280;21367;51.930;8.112;2023-07-30T20:49:54;100566.00;;;16.71;100.00
35224;BME280;21367;51.930;8.112;2023-07-30T20:54:58;100563.06;;;16.49;100.00
35224;BME280;21367;51.930;8.112;2023-07-30T21:00:07;100554.47;;;16.53;100.00
35224;BME280;21367;51.930;8.112;2023-07-30T21:05:11;100571.50;;;15.86;100.00
35224;BME280;21367;51.930;8.112;2023-07-30T21:10:14;100560.06;;;16.25;100.00
35224;BME280;21367;51.930;8.112;2023-07-30T21:15:21;100560.94;;;16.25;100.00
35224;BME280;21367;51.930;8.112;2023-07-30T21:20:25;100552.34;;;16.28;100.00
35224;BME280;21367;51.930;8.112;2023-07-30T21:25:31;100547.13;;;16.26;100.00
35224;BME280;21367;51.930;8.112;2023-07-30T21:30:37;100544.25;;;16.09;100.00
35224;BME280;21367;51.930;8.112;2023-07-30T21:35:40;100547.84;;;16.17;100.00
35224;BME280;21367;51.930;8.112;2023-07-30T21:40:45;100556.16;;;15.98;100.00
35224;BME280;21367;51.930;8.112;2023-07-30T21:45:53;100551.16;;;16.09;100.00
35224;BME280;21367;51.930;8.112;2023-07-30T21:50:58;100530.06;;;15.87;100.00
35224;BME280;21367;51.930;8.112;2023-07-30T21:56:01;100533.66;;;15.97;100.00
35224;BME280;21367;51.930;8.112;2023-07-30T22:01:07;100515.63;;;16.02;100.00
35224;BME280;21367;51.930;8.112;2023-07-30T22:06:11;100506.13;;;16.04;100.00
35224;BME280;21367;51.930;8.112;2023-07-30T22:11:15;100513.97;;;16.07;100.00
35224;BME280;21367;51.930;8.112;2023-07-30T22:16:21;100509.75;;;16.13;100.00
35224;BME280;21367;51.930;8.112;2023-07-30T22:21:25;100503.38;;;15.94;100.00
35224;BME280;21367;51.930;8.112;2023-07-30T22:26:28;100496.41;;;15.89;100.00
35224;BME280;21367;51.930;8.112;2023-07-30T22:31:37;100500.78;;;15.94;100.00
35224;BME280;21367;51.930;8.112;2023-07-30T22:36:41;100485.53;;;16.11;100.00
35224;BME280;21367;51.930;8.112;2023-07-30T22:41:45;100480.34;;;16.13;100.00
35224;BME280;21367;51.930;8.112;2023-07-30T22:46:51;100474.19;;;16.06;100.00
35224;BME280;21367;51.930;8.112;2023-07-30T22:51:54;100473.44;;;16.12;100.00
35224;BME280;21367;51.930;8.112;2023-07-30T22:56:58;100469.22;;;16.18;100.00
35224;BME280;21367;51.930;8.112;2023-07-30T23:02:05;100457.47;;;15.87;100.00
35224;BME280;21367;51.930;8.112;2023-07-30T23:07:08;100450.66;;;15.92;100.00
35224;BME280;21367;51.930;8.112;2023-07-30T23:12:12;100444.53;;;15.87;100.00
35224;BME280;21367;51.930;8.112;2023-07-30T23:17:18;100437.59;;;15.86;100.00
35224;BME280;21367;51.930;8.112;2023-07-30T23:22:22;100423.88;;;15.93;100.00
35224;BME280;21367;51.930;8.112;2023-07-30T23:27:26;100411.84;;;15.97;100.00
35224;BME280;21367;51.930;8.112;2023-07-30T23:32:32;100400.41;;;15.84;100.00
35224;BME280;21367;51.930;8.112;2023-07-30T23:37:35;100395.50;;;16.03;100.00
35224;BME280;21367;51.930;8.112;2023-07-30T23:42:39;100397.81;;;15.83;100.00
35224;BME280;21367;51.930;8.112;2023-07-30T23:47:45;100391.72;;;15.82;100.00
35224;BME280;21367;51.930;8.112;2023-07-30T23:52:49;100388.50;;;15.97;100.00
35224;BME280;21367;51.930;8.112;2023-07-30T23:57:52;100386.78;;;15.98;100.00
